createdAt,value
2023-04-17T00:01:18.317Z,41.89
2023-04-17T00:03:52.989Z,42.19
2023-04-17T00:06:19.806Z,42.12
2023-04-17T00:08:48.936Z,42.34
2023-04-17T00:11:18.818Z,42.07
2023-04-17T00:13:47.834Z,42.23
2023-04-17T00:16:16.668Z,42.14
2023-04-17T00:18:45.748Z,42.25
2023-04-17T00:21:13.405Z,42.22
2023-04-17T00:23:42.243Z,42.31
2023-04-17T00:26:12.081Z,42.12
2023-04-17T00:28:40.921Z,42.31
2023-04-17T00:31:10.268Z,42.31
2023-04-17T00:33:41.722Z,42.10
2023-04-17T00:36:09.322Z,42.39
2023-04-17T00:38:35.999Z,42.32
2023-04-17T00:41:02.612Z,42.29
2023-04-17T00:43:29.400Z,42.37
2023-04-17T00:45:56.037Z,42.15
2023-04-17T00:48:24.294Z,42.36
2023-04-17T00:50:55.454Z,42.36
2023-04-17T00:53:22.026Z,42.28
2023-04-17T00:55:48.684Z,42.16
2023-04-17T00:58:17.804Z,42.24
2023-04-17T01:00:50.248Z,42.25
2023-04-17T01:03:19.306Z,41.80
2023-04-17T01:05:51.502Z,42.17
2023-04-17T01:08:20.061Z,42.11
2023-04-17T01:10:49.145Z,42.36
2023-04-17T01:13:18.090Z,42.18
2023-04-17T01:15:47.411Z,42.19
2023-04-17T01:18:18.817Z,42.27
2023-04-17T01:20:53.708Z,42.23
2023-04-17T01:23:22.352Z,42.21
2023-04-17T01:25:51.202Z,42.29
2023-04-17T01:28:19.973Z,42.20
2023-04-17T01:30:49.058Z,42.17
2023-04-17T01:33:18.034Z,42.18
2023-04-17T01:35:44.706Z,42.17
2023-04-17T01:38:13.886Z,42.31
2023-04-17T01:40:40.591Z,42.17
2023-04-17T01:43:09.712Z,42.22
2023-04-17T01:45:36.462Z,42.35
2023-04-17T01:48:03.315Z,42.33
2023-04-17T01:50:34.761Z,42.27
2023-04-17T01:53:01.382Z,42.28
2023-04-17T01:55:29.581Z,42.21
2023-04-17T01:57:56.241Z,42.37
2023-04-17T02:00:25.293Z,42.39
2023-04-17T02:02:52.044Z,42.23
2023-04-17T02:05:21.611Z,42.28
2023-04-17T02:07:50.526Z,42.32
2023-04-17T02:10:19.410Z,42.29
2023-04-17T02:12:46.091Z,42.27
2023-04-17T02:15:14.963Z,42.16
2023-04-17T02:17:44.320Z,42.10
2023-04-17T02:20:11.409Z,42.15
2023-04-17T02:22:38.325Z,42.27
2023-04-17T02:25:08.219Z,42.33
2023-04-17T02:27:37.059Z,42.17
2023-04-17T02:30:04.097Z,42.22
2023-04-17T02:32:33.033Z,42.29
2023-04-17T02:35:01.846Z,42.32
2023-04-17T02:37:28.406Z,42.24
2023-04-17T02:39:55.809Z,42.40
2023-04-17T02:42:22.520Z,42.14
2023-04-17T02:44:53.921Z,42.17
2023-04-17T02:47:23.661Z,42.17
2023-04-17T02:49:54.966Z,42.22
2023-04-17T02:52:24.223Z,42.20
2023-04-17T02:54:51.008Z,42.10
2023-04-17T02:57:19.795Z,42.23
2023-04-17T02:59:46.515Z,42.15
2023-04-17T03:02:14.682Z,42.36
2023-04-17T03:04:43.808Z,42.33
2023-04-17T03:07:11.027Z,42.19
2023-04-17T03:09:40.058Z,42.13
2023-04-17T03:12:06.913Z,42.37
2023-04-17T03:14:38.178Z,42.26
2023-04-17T03:17:07.824Z,42.30
2023-04-17T03:19:36.641Z,42.25
2023-04-17T03:22:07.209Z,42.27
2023-04-17T03:24:33.947Z,42.31
2023-04-17T03:27:02.822Z,42.25
2023-04-17T03:29:31.926Z,42.22
2023-04-17T03:32:01.661Z,42.30
2023-04-17T03:34:30.936Z,42.16
2023-04-17T03:36:59.819Z,42.29
2023-04-17T03:39:27.063Z,42.15
2023-04-17T03:41:53.680Z,42.29
2023-04-17T03:44:22.518Z,42.08
2023-04-17T03:46:51.302Z,42.33
2023-04-17T03:49:23.296Z,42.28
2023-04-17T03:51:49.950Z,42.44
2023-04-17T03:54:17.220Z,42.31
2023-04-17T03:56:43.906Z,41.98
2023-04-17T03:59:13.070Z,42.23
2023-04-17T04:01:44.191Z,42.52
2023-04-17T04:04:13.731Z,42.20
2023-04-17T04:06:45.156Z,42.15
2023-04-17T04:09:12.487Z,42.33
2023-04-17T04:11:39.254Z,42.15
2023-04-17T04:14:05.868Z,42.31
2023-04-17T04:16:32.602Z,42.24
2023-04-17T04:18:59.387Z,42.16
2023-04-17T04:21:26.798Z,42.25
2023-04-17T04:23:56.001Z,42.20
2023-04-17T04:26:24.806Z,42.30
2023-04-17T04:28:51.491Z,42.22
2023-04-17T04:31:23.694Z,42.39
2023-04-17T04:33:55.420Z,42.15
2023-04-17T04:36:30.268Z,42.23
2023-04-17T04:39:02.131Z,42.17
2023-04-17T04:41:33.892Z,42.22
2023-04-17T04:44:02.789Z,42.37
2023-04-17T04:46:32.450Z,42.22
2023-04-17T04:48:59.283Z,42.38
2023-04-17T04:51:28.657Z,42.21
2023-04-17T04:53:55.354Z,42.33
2023-04-17T04:56:24.286Z,42.10
2023-04-17T04:58:56.336Z,42.36
2023-04-17T05:01:23.166Z,42.40
2023-04-17T05:03:50.044Z,42.35
2023-04-17T05:06:17.163Z,42.37
2023-04-17T05:08:46.274Z,42.18
2023-04-17T05:11:17.554Z,42.30
2023-04-17T05:13:46.428Z,42.12
2023-04-17T05:16:15.474Z,42.35
2023-04-17T05:18:44.293Z,42.28
2023-04-17T05:21:10.883Z,42.37
2023-04-17T05:23:37.537Z,42.21
2023-04-17T05:26:06.328Z,42.34
2023-04-17T05:28:35.583Z,42.24
2023-04-17T05:31:02.303Z,42.19
2023-04-17T05:33:28.998Z,42.17
2023-04-17T05:35:56.405Z,42.16
2023-04-17T05:38:23.231Z,42.25
2023-04-17T05:40:49.927Z,42.17
2023-04-17T05:43:18.778Z,42.32
2023-04-17T05:45:45.764Z,42.45
2023-04-17T05:48:17.420Z,42.28
2023-04-17T05:50:46.152Z,42.30
2023-04-17T05:53:15.005Z,42.19
2023-04-17T05:55:42.027Z,42.29
2023-04-17T05:58:22.587Z,42.26
2023-04-17T06:00:52.569Z,42.38
2023-04-17T06:03:22.402Z,42.25
2023-04-17T06:05:54.097Z,42.18
2023-04-17T06:08:20.877Z,42.23
2023-04-17T06:10:50.804Z,42.24
2023-04-17T06:13:22.196Z,42.41
2023-04-17T06:15:51.585Z,42.24
2023-04-17T06:18:18.325Z,42.43
2023-04-17T06:20:45.691Z,42.43
2023-04-17T06:23:12.482Z,42.17
2023-04-17T06:25:41.405Z,42.14
2023-04-17T06:28:11.033Z,42.36
2023-04-17T06:30:38.064Z,42.18
2023-04-17T06:33:07.126Z,42.03
2023-04-17T06:35:38.474Z,42.39
2023-04-17T06:38:10.015Z,42.24
2023-04-17T06:40:39.867Z,42.17
2023-04-17T06:43:09.684Z,42.36
2023-04-17T06:45:43.006Z,42.07
2023-04-17T06:48:14.571Z,42.36
2023-04-17T06:50:43.378Z,42.40
2023-04-17T06:53:10.053Z,42.12
2023-04-17T06:55:36.684Z,42.14
2023-04-17T06:58:08.036Z,42.14
2023-04-17T07:00:36.924Z,42.24
2023-04-17T07:03:10.369Z,42.28
2023-04-17T07:05:37.157Z,42.32
2023-04-17T07:08:06.952Z,42.10
2023-04-17T07:10:35.935Z,42.23
2023-04-17T07:13:21.100Z,42.16
2023-04-17T07:15:57.154Z,42.58
2023-04-17T07:18:27.126Z,42.33
2023-04-17T07:20:53.813Z,42.22
2023-04-17T07:23:25.566Z,42.15
2023-04-17T07:25:54.705Z,42.35
2023-04-17T07:28:25.124Z,42.30
2023-04-17T07:30:55.021Z,42.22
2023-04-17T07:33:21.848Z,42.26
2023-04-17T07:35:48.510Z,42.12
2023-04-17T07:38:17.349Z,42.10
2023-04-17T07:40:44.323Z,42.20
2023-04-17T07:43:13.377Z,42.26
2023-04-17T07:45:41.815Z,42.26
2023-04-17T07:48:12.002Z,42.05
2023-04-17T07:50:41.242Z,42.25
2023-04-17T07:53:10.153Z,42.25
2023-04-17T07:55:37.547Z,42.14
2023-04-17T07:58:04.289Z,42.18
2023-04-17T08:00:33.922Z,42.16
2023-04-17T08:03:06.108Z,42.26
2023-04-17T08:05:33.345Z,42.14
2023-04-17T08:08:05.681Z,42.18
2023-04-17T08:10:32.277Z,42.13
2023-04-17T08:13:01.454Z,42.29
2023-04-17T08:15:28.758Z,42.26
2023-04-17T08:17:57.828Z,42.29
2023-04-17T08:20:27.328Z,41.98
2023-04-17T08:22:56.151Z,42.25
2023-04-17T08:25:25.368Z,42.27
2023-04-17T08:27:52.087Z,42.30
2023-04-17T08:30:20.961Z,42.34
2023-04-17T08:32:50.327Z,42.42
2023-04-17T08:35:19.444Z,42.25
2023-04-17T08:37:47.414Z,42.25
2023-04-17T08:40:17.395Z,42.20
2023-04-17T08:42:44.195Z,42.27
2023-04-17T08:45:14.601Z,42.19
2023-04-17T08:47:44.146Z,42.17
2023-04-17T08:50:12.538Z,42.33
2023-04-17T08:52:47.981Z,42.35
2023-04-17T08:55:16.685Z,42.36
2023-04-17T08:58:04.629Z,42.31
2023-04-17T09:00:35.904Z,42.33
2023-04-17T09:03:05.163Z,42.34
2023-04-17T09:05:36.716Z,42.50
2023-04-17T09:08:13.067Z,42.41
2023-04-17T09:10:48.632Z,42.43
2023-04-17T09:13:16.852Z,42.45
2023-04-17T09:15:44.253Z,42.38
2023-04-17T09:18:23.771Z,42.28
2023-04-17T09:20:53.668Z,42.33
2023-04-17T09:23:20.799Z,42.34
2023-04-17T09:25:49.775Z,42.37
2023-04-17T09:28:21.111Z,42.45
2023-04-17T09:30:49.887Z,42.57
2023-04-17T09:33:18.787Z,42.53
2023-04-17T09:35:47.610Z,42.54
2023-04-17T09:38:21.478Z,42.35
2023-04-17T09:40:48.069Z,42.41
2023-04-17T09:43:16.933Z,42.50
2023-04-17T09:45:45.828Z,42.46
2023-04-17T09:48:13.110Z,42.47
2023-04-17T09:50:42.360Z,42.62
2023-04-17T09:53:09.296Z,42.62
2023-04-17T09:55:40.660Z,42.67
2023-04-17T09:58:09.465Z,42.43
2023-04-17T10:00:38.377Z,42.60
2023-04-17T10:03:08.301Z,42.49
2023-04-17T10:05:35.331Z,42.49
2023-04-17T10:08:02.692Z,42.54
2023-04-17T10:10:36.663Z,42.67
2023-04-17T10:13:07.331Z,42.50
2023-04-17T10:15:36.252Z,42.69
2023-04-17T10:18:22.607Z,42.67
2023-04-17T10:20:50.136Z,42.46
2023-04-17T10:23:26.679Z,42.47
2023-04-17T10:26:33.455Z,42.62
2023-04-17T10:29:04.939Z,42.59
2023-04-17T10:32:10.660Z,42.45
2023-04-17T10:34:43.960Z,42.49
2023-04-17T10:37:15.422Z,42.65
2023-04-17T10:40:10.801Z,42.39
2023-04-17T10:42:37.551Z,42.41
2023-04-17T10:45:05.950Z,42.53
2023-04-17T10:47:39.056Z,42.53
2023-04-17T10:50:08.549Z,42.40
2023-04-17T10:52:39.828Z,42.62
2023-04-17T10:55:11.156Z,42.55
2023-04-17T10:58:01.192Z,42.48
2023-04-17T11:00:32.655Z,42.65
2023-04-17T11:03:05.072Z,42.56
2023-04-17T11:05:35.769Z,42.64
2023-04-17T11:08:07.770Z,42.55
2023-04-17T11:10:35.798Z,42.79
2023-04-17T11:13:07.162Z,42.60
2023-04-17T11:15:37.125Z,42.69
2023-04-17T11:18:03.958Z,42.71
2023-04-17T11:20:36.040Z,42.71
2023-04-17T11:23:03.666Z,42.54
2023-04-17T11:25:34.202Z,42.66
2023-04-17T11:28:03.606Z,42.57
2023-04-17T11:30:40.730Z,42.58
2023-04-17T11:33:08.071Z,42.50
2023-04-17T11:35:36.234Z,42.75
2023-04-17T11:38:12.094Z,42.73
2023-04-17T11:40:45.828Z,42.74
2023-04-17T11:43:12.910Z,42.74
2023-04-17T11:45:43.101Z,42.57
2023-04-17T11:48:14.005Z,42.64
2023-04-17T11:50:44.749Z,42.75
2023-04-17T11:53:19.777Z,42.65
2023-04-17T11:55:46.654Z,42.72
2023-04-17T11:58:13.729Z,42.80
2023-04-17T12:00:43.724Z,42.73
2023-04-17T12:03:35.995Z,42.75
2023-04-17T12:06:04.409Z,42.67
2023-04-17T12:08:33.924Z,42.65
2023-04-17T12:11:02.867Z,42.57
2023-04-17T12:13:29.545Z,42.57
2023-04-17T12:15:56.966Z,42.72
2023-04-17T12:18:23.784Z,42.72
2023-04-17T12:20:52.634Z,42.82
2023-04-17T12:23:24.048Z,42.66
2023-04-17T12:25:50.714Z,42.60
2023-04-17T12:28:22.114Z,42.68
2023-04-17T12:30:51.035Z,42.59
2023-04-17T12:33:17.687Z,42.87
2023-04-17T12:35:49.570Z,42.66
2023-04-17T12:38:16.404Z,42.74
2023-04-17T12:40:44.117Z,42.68
2023-04-17T12:43:11.360Z,42.58
2023-04-17T12:45:42.302Z,42.84
2023-04-17T12:48:09.052Z,42.68
2023-04-17T12:50:42.456Z,42.58
2023-04-17T12:53:09.994Z,42.75
2023-04-17T12:55:42.516Z,42.60
2023-04-17T12:58:12.918Z,42.44
2023-04-17T13:00:40.703Z,42.76
2023-04-17T13:03:07.776Z,42.74
2023-04-17T13:05:36.626Z,42.69
2023-04-17T13:08:03.786Z,42.55
2023-04-17T13:10:34.292Z,42.75
2023-04-17T13:13:02.289Z,42.56
2023-04-17T13:15:31.915Z,42.70
2023-04-17T13:18:03.863Z,42.57
2023-04-17T13:20:30.808Z,42.68
2023-04-17T13:23:00.728Z,42.73
2023-04-17T13:25:29.631Z,42.55
2023-04-17T13:27:56.372Z,42.58
2023-04-17T13:30:23.153Z,42.55
2023-04-17T13:32:52.014Z,42.67
2023-04-17T13:35:21.410Z,42.68
2023-04-17T13:37:50.543Z,42.48
2023-04-17T13:40:19.536Z,42.66
2023-04-17T13:42:46.358Z,42.61
2023-04-17T13:45:13.488Z,42.66
2023-04-17T13:47:40.692Z,42.65
2023-04-17T13:50:08.157Z,42.52
2023-04-17T13:52:37.372Z,42.53
2023-04-17T13:55:11.920Z,42.42
2023-04-17T13:57:38.792Z,42.63
2023-04-17T14:00:07.309Z,42.55
2023-04-17T14:02:34.092Z,42.51
2023-04-17T14:05:00.974Z,42.57
2023-04-17T14:07:30.161Z,42.51
2023-04-17T14:10:01.515Z,42.59
2023-04-17T14:12:28.269Z,42.67
2023-04-17T14:14:59.572Z,42.63
2023-04-17T14:17:29.179Z,42.71
2023-04-17T14:19:58.261Z,42.57
2023-04-17T14:22:25.919Z,42.43
2023-04-17T14:24:57.334Z,42.69
2023-04-17T14:27:23.988Z,42.70
2023-04-17T14:29:53.037Z,42.52
2023-04-17T14:32:21.193Z,42.55
2023-04-17T14:34:53.547Z,42.75
2023-04-17T14:37:22.336Z,42.56
2023-04-17T14:39:49.250Z,42.79
2023-04-17T14:42:18.372Z,42.64
2023-04-17T14:44:48.956Z,42.63
2023-04-17T14:47:16.498Z,42.56
2023-04-17T14:49:43.147Z,42.61
2023-04-17T14:52:09.864Z,42.77
2023-04-17T14:54:39.277Z,42.62
2023-04-17T14:57:06.356Z,42.64
2023-04-17T14:59:33.092Z,42.63
2023-04-17T15:01:59.914Z,42.73
2023-04-17T15:04:29.298Z,42.79
2023-04-17T15:06:56.987Z,42.63
2023-04-17T15:09:25.850Z,42.76
2023-04-17T15:11:54.838Z,42.85
2023-04-17T15:14:26.738Z,42.77
2023-04-17T15:16:55.857Z,42.58
2023-04-17T15:19:27.298Z,42.59
2023-04-17T15:21:54.049Z,42.73
2023-04-17T15:24:20.828Z,42.62
2023-04-17T15:26:49.629Z,42.77
2023-04-17T15:29:16.436Z,42.66
2023-04-17T15:31:43.188Z,42.59
2023-04-17T15:34:09.842Z,42.87
2023-04-17T15:36:38.658Z,42.76
2023-04-17T15:39:05.293Z,42.85
2023-04-17T15:41:34.146Z,42.74
2023-04-17T15:44:05.958Z,42.77
2023-04-17T15:46:38.346Z,42.73
2023-04-17T15:49:21.452Z,42.80
2023-04-17T15:51:48.271Z,42.64
2023-04-17T15:54:18.454Z,42.64
2023-04-17T15:56:45.059Z,42.64
2023-04-17T15:59:14.136Z,42.66
2023-04-17T16:01:43.732Z,42.72
2023-04-17T16:04:10.662Z,42.70
2023-04-17T16:06:40.624Z,42.72
2023-04-17T16:09:07.342Z,42.69
2023-04-17T16:11:55.056Z,42.71
2023-04-17T16:14:21.741Z,42.86
2023-04-17T16:16:48.400Z,42.81
2023-04-17T16:19:17.273Z,42.85
2023-04-17T16:21:44.425Z,42.97
2023-04-17T16:24:13.274Z,42.85
2023-04-17T16:26:41.296Z,42.85
2023-04-17T16:29:13.507Z,42.86
2023-04-17T16:31:41.521Z,42.71
2023-04-17T16:34:12.437Z,42.80
2023-04-17T16:36:45.196Z,42.87
2023-04-17T16:39:12.622Z,42.72
2023-04-17T16:41:39.490Z,42.82
2023-04-17T16:44:06.270Z,42.87
2023-04-17T16:46:52.184Z,42.86
2023-04-17T16:49:21.731Z,42.79
2023-04-17T16:51:50.554Z,42.88
2023-04-17T16:54:18.765Z,42.83
2023-04-17T16:56:47.685Z,42.83
2023-04-17T16:59:19.118Z,42.76
2023-04-17T17:01:49.974Z,42.88
2023-04-17T17:04:16.740Z,42.76
2023-04-17T17:06:48.102Z,43.01
2023-04-17T17:09:16.984Z,42.90
2023-04-17T17:11:43.647Z,42.85
2023-04-17T17:14:12.410Z,42.80
2023-04-17T17:16:40.875Z,42.80
2023-04-17T17:19:07.609Z,42.76
2023-04-17T17:21:39.305Z,42.80
2023-04-17T17:24:06.290Z,42.81
2023-04-17T17:26:33.064Z,42.77
2023-04-17T17:28:59.972Z,42.81
2023-04-17T17:31:26.637Z,42.88
2023-04-17T17:33:55.850Z,42.82
2023-04-17T17:36:22.523Z,42.88
2023-04-17T17:38:55.748Z,42.85
2023-04-17T17:41:28.391Z,42.90
2023-04-17T17:43:58.245Z,42.75
2023-04-17T17:46:25.099Z,42.85
2023-04-17T17:48:53.946Z,42.81
2023-04-17T17:51:22.621Z,42.95
2023-04-17T17:53:49.581Z,42.90
2023-04-17T17:56:16.220Z,42.82
2023-04-17T17:58:42.981Z,42.95
2023-04-17T18:01:10.986Z,42.85
2023-04-17T18:03:37.960Z,42.94
2023-04-17T18:06:06.881Z,42.93
2023-04-17T18:08:36.543Z,43.02
2023-04-17T18:11:07.885Z,42.86
2023-04-17T18:13:34.586Z,42.96
2023-04-17T18:16:05.736Z,43.04
2023-04-17T18:18:33.281Z,43.06
2023-04-17T18:20:59.980Z,43.00
2023-04-17T18:23:26.736Z,43.16
2023-04-17T18:26:15.422Z,42.97
2023-04-17T18:28:48.564Z,42.99
2023-04-17T18:31:15.901Z,43.04
2023-04-17T18:33:42.503Z,43.08
2023-04-17T18:36:10.551Z,43.11
2023-04-17T18:38:39.703Z,42.86
2023-04-17T18:41:06.400Z,43.13
2023-04-17T18:43:37.728Z,42.99
2023-04-17T18:46:07.464Z,42.93
2023-04-17T18:48:36.487Z,42.98
2023-04-17T18:51:12.728Z,42.99
2023-04-17T18:53:41.909Z,43.16
2023-04-17T18:56:10.753Z,43.17
2023-04-17T18:58:40.181Z,43.12
2023-04-17T19:01:08.880Z,42.99
2023-04-17T19:03:35.746Z,43.19
2023-04-17T19:06:02.627Z,43.14
2023-04-17T19:08:31.518Z,43.01
2023-04-17T19:11:02.834Z,43.20
2023-04-17T19:13:29.498Z,43.05
2023-04-17T19:15:58.934Z,43.19
2023-04-17T19:18:29.483Z,43.08
2023-04-17T19:20:56.245Z,43.07
2023-04-17T19:23:25.687Z,43.25
2023-04-17T19:25:55.232Z,43.15
2023-04-17T19:28:28.464Z,43.32
2023-04-17T19:31:00.856Z,43.18
2023-04-17T19:33:29.047Z,43.19
2023-04-17T19:35:55.740Z,43.23
2023-04-17T19:38:22.485Z,43.07
2023-04-17T19:41:20.820Z,43.09
2023-04-17T19:43:54.320Z,43.11
2023-04-17T19:46:21.779Z,43.31
2023-04-17T19:48:50.777Z,43.22
2023-04-17T19:51:17.545Z,43.27
2023-04-17T19:53:44.673Z,43.30
2023-04-17T19:56:13.780Z,43.05
2023-04-17T19:58:42.804Z,43.14
2023-04-17T20:01:11.622Z,43.09
2023-04-17T20:03:42.269Z,43.22
2023-04-17T20:06:13.941Z,43.13
2023-04-17T20:08:42.943Z,43.11
2023-04-17T20:11:12.075Z,43.27
2023-04-17T20:13:39.098Z,43.36
2023-04-17T20:16:08.469Z,43.23
2023-04-17T20:18:37.491Z,43.23
2023-04-17T20:21:05.951Z,43.24
2023-04-17T20:23:35.350Z,43.29
2023-04-17T20:26:23.638Z,43.18
2023-04-17T20:28:54.742Z,43.32
2023-04-17T20:31:21.450Z,43.23
2023-04-17T20:33:48.164Z,43.00
2023-04-17T20:36:17.129Z,43.38
2023-04-17T20:38:49.089Z,43.30
2023-04-17T20:41:21.023Z,43.26
2023-04-17T20:43:57.239Z,43.28
2023-04-17T20:46:24.014Z,43.26
2023-04-17T20:48:52.826Z,43.29
2023-04-17T20:51:24.852Z,43.36
2023-04-17T20:53:54.214Z,43.42
2023-04-17T20:56:24.047Z,43.37
2023-04-17T20:58:56.052Z,43.30
2023-04-17T21:01:25.524Z,43.29
2023-04-17T21:03:54.464Z,43.13
2023-04-17T21:06:26.900Z,43.23
2023-04-17T21:08:54.029Z,43.26
2023-04-17T21:11:21.528Z,43.45
2023-04-17T21:13:53.566Z,43.32
2023-04-17T21:16:25.319Z,43.38
2023-04-17T21:18:57.911Z,43.17
2023-04-17T21:21:29.753Z,43.32
2023-04-17T21:23:56.364Z,43.38
2023-04-17T21:26:28.131Z,43.31
2023-04-17T21:28:54.827Z,43.26
2023-04-17T21:31:21.574Z,43.39
2023-04-17T21:33:53.018Z,43.41
2023-04-17T21:36:24.896Z,43.38
2023-04-17T21:38:53.767Z,43.31
2023-04-17T21:41:20.487Z,43.32
2023-04-17T21:43:52.268Z,43.18
2023-04-17T21:46:19.196Z,43.46
2023-04-17T21:48:48.007Z,43.29
2023-04-17T21:51:19.858Z,43.24
2023-04-17T21:53:46.581Z,43.29
2023-04-17T21:56:13.372Z,43.37
2023-04-17T21:58:40.110Z,43.45
2023-04-17T22:01:09.053Z,43.63
2023-04-17T22:03:35.805Z,43.45
2023-04-17T22:06:04.660Z,43.38
2023-04-17T22:08:31.399Z,43.50
2023-04-17T22:11:00.753Z,43.45
2023-04-17T22:13:29.583Z,43.40
2023-04-17T22:15:58.275Z,43.37
2023-04-17T22:18:28.481Z,43.35
2023-04-17T22:20:57.293Z,43.52
2023-04-17T22:23:28.636Z,43.51
2023-04-17T22:25:57.482Z,43.56
2023-04-17T22:28:26.354Z,43.31
2023-04-17T22:30:58.327Z,43.47
2023-04-17T22:33:27.190Z,43.45
2023-04-17T22:35:53.920Z,43.37
2023-04-17T22:38:23.224Z,43.32
2023-04-17T22:40:52.968Z,43.51
2023-04-17T22:43:21.738Z,43.46
2023-04-17T22:45:48.389Z,43.48
2023-04-17T22:48:15.110Z,43.49
2023-04-17T22:50:46.874Z,43.36
2023-04-17T22:53:15.742Z,43.54
2023-04-17T22:55:47.172Z,43.34
2023-04-17T22:58:13.867Z,43.32
2023-04-17T23:00:42.787Z,43.34
2023-04-17T23:03:14.564Z,43.38
2023-04-17T23:05:41.368Z,43.53
2023-04-17T23:08:08.228Z,43.27
2023-04-17T23:10:37.110Z,43.50
2023-04-17T23:13:05.873Z,43.40
2023-04-17T23:15:36.228Z,43.44
2023-04-17T23:18:02.947Z,43.37
2023-04-17T23:20:29.608Z,43.45
2023-04-17T23:22:56.218Z,43.26
2023-04-17T23:25:25.036Z,43.26
2023-04-17T23:27:53.825Z,43.26
2023-04-17T23:30:23.188Z,43.48
2023-04-17T23:32:52.165Z,43.45
2023-04-17T23:35:22.603Z,43.40
2023-04-17T23:37:49.395Z,43.50
2023-04-17T23:40:16.187Z,43.41
2023-04-17T23:42:45.056Z,43.35
2023-04-17T23:45:11.833Z,43.49
2023-04-17T23:47:40.641Z,43.50
2023-04-17T23:50:07.952Z,43.28
2023-04-17T23:52:34.637Z,43.39
2023-04-17T23:55:03.801Z,43.47
2023-04-17T23:57:35.550Z,43.38
